createdAt,value
2017-06-29T00:00:53.269Z,75.62
2017-06-29T00:03:18.476Z,74.37
2017-06-29T00:05:42.663Z,73.89
2017-06-29T00:08:06.850Z,75.2
2017-06-29T00:10:31.035Z,75.59
2017-06-29T00:12:55.212Z,75.49
2017-06-29T00:14:56.595Z,74.72
2017-06-29T00:17:20.744Z,75.49
2017-06-29T00:19:44.932Z,76.23
2017-06-29T00:22:09.109Z,76.42
2017-06-29T00:24:33.290Z,77.38
2017-06-29T00:26:57.486Z,77.58
2017-06-29T00:29:21.668Z,78.92
2017-06-29T00:31:37.351Z,80.27
2017-06-29T00:34:01.538Z,79.79
2017-06-29T00:36:25.720Z,80.27
2017-06-29T00:38:49.906Z,81.24
2017-06-29T00:41:14.091Z,83.03
2017-06-29T00:43:29.738Z,83.16
2017-06-29T00:45:53.862Z,83.22
2017-06-29T00:48:01.205Z,85.43
2017-06-29T00:50:25.328Z,84.56
2017-06-29T00:52:49.512Z,84.47
2017-06-29T00:55:13.702Z,86.21
2017-06-29T00:59:13.759Z,87.26
2017-06-29T01:01:37.908Z,88.32
2017-06-29T01:04:02.105Z,87.36
2017-06-29T01:07:54.084Z,88.23
2017-06-29T01:10:18.233Z,89.15
2017-06-29T01:12:42.411Z,90.2
2017-06-29T01:15:06.546Z,89.34
2017-06-29T01:17:30.685Z,91.17
2017-06-29T01:19:46.334Z,93.05
2017-06-29T01:21:56.258Z,93.05
2017-06-29T01:23:58.203Z,93.96
2017-06-29T01:26:13.859Z,94.34
2017-06-29T01:28:29.546Z,94.15
2017-06-29T01:30:53.621Z,94.34
2017-06-29T01:33:09.307Z,96.32
2017-06-29T01:35:33.391Z,95.5
2017-06-29T01:37:57.471Z,92.71
2017-06-29T01:40:21.576Z,93.29
2017-06-29T01:42:45.649Z,94.15
2017-06-29T01:45:09.723Z,95.12
2017-06-29T01:47:33.806Z,94.92
2017-06-29T01:49:57.887Z,97.04
2017-06-29T01:52:21.959Z,95.4
2017-06-29T01:54:46.044Z,96.85
2017-06-29T01:57:01.732Z,96.08
2017-06-29T01:59:25.817Z,97.52
2017-06-29T02:01:49.894Z,98.72
2017-06-29T02:04:05.580Z,99.99
2017-06-29T02:06:21.155Z,99.99
2017-06-29T02:08:36.851Z,99.99
2017-06-29T02:11:00.933Z,99.99
2017-06-29T02:13:08.118Z,99.99
2017-06-29T02:15:32.196Z,99.99
2017-06-29T02:17:56.276Z,99.99
2017-06-29T02:20:20.361Z,99.99
2017-06-29T02:22:44.459Z,99.64
2017-06-29T02:25:08.525Z,99.99
2017-06-29T02:27:24.535Z,99.99
2017-06-29T02:29:48.293Z,99.99
2017-06-29T02:32:12.376Z,99.99
2017-06-29T02:34:28.030Z,99.99
2017-06-29T02:36:43.643Z,99.99
2017-06-29T02:39:07.722Z,99.69
2017-06-29T02:41:23.303Z,99.99
2017-06-29T02:43:38.884Z,99.99
2017-06-29T02:46:02.972Z,99.99
2017-06-29T02:48:18.555Z,99.99
2017-06-29T02:50:42.628Z,99.99
2017-06-29T02:53:06.617Z,99.84
2017-06-29T02:55:30.695Z,99.44
2017-06-29T02:57:32.587Z,99.16
2017-06-29T02:59:48.243Z,99.99
2017-06-29T03:02:03.824Z,99.99
2017-06-29T03:04:19.408Z,99.99
2017-06-29T03:06:43.486Z,99.99
2017-06-29T03:09:07.570Z,99.99
2017-06-29T03:11:23.154Z,99.64
2017-06-29T03:13:47.235Z,94.87
2017-06-29T03:16:11.315Z,93.91
2017-06-29T03:18:35.399Z,90.24
2017-06-29T03:20:59.483Z,90.2
2017-06-29T03:23:23.651Z,91.93
2017-06-29T03:25:47.749Z,89.62
2017-06-29T03:28:11.832Z,89.33
2017-06-29T03:30:35.918Z,88.75
2017-06-29T03:33:00.097Z,89.81
2017-06-29T03:35:24.185Z,91.12
2017-06-29T03:37:48.259Z,92.37
2017-06-29T03:40:12.348Z,94.06
2017-06-29T03:42:36.428Z,94.78
2017-06-29T03:44:37.901Z,94.29
2017-06-29T03:46:45.123Z,93.91
2017-06-29T03:49:09.245Z,94.29
2017-06-29T03:51:33.333Z,94.82
2017-06-29T03:53:40.518Z,94.82
2017-06-29T03:56:04.597Z,98.24
2017-06-29T03:58:28.678Z,97.42
2017-06-29T04:00:35.861Z,96.66
2017-06-29T04:02:51.537Z,97.96
2017-06-29T04:05:15.628Z,97.33
2017-06-29T04:07:39.710Z,97.04
2017-06-29T04:10:03.798Z,97.24
2017-06-29T04:12:27.876Z,97.91
2017-06-29T04:14:51.951Z,98.44
2017-06-29T04:17:16.041Z,97.81
2017-06-29T04:19:17.518Z,97.76
2017-06-29T04:21:18.867Z,99.99
2017-06-29T04:23:43.021Z,99.99
2017-06-29T04:26:07.106Z,99.44
2017-06-29T04:28:31.207Z,98.19
2017-06-29T04:30:55.265Z,97.42
2017-06-29T04:33:19.350Z,97.38
2017-06-29T04:35:43.434Z,96.66
2017-06-29T04:38:07.515Z,98.39
2017-06-29T04:40:23.211Z,97.72
2017-06-29T04:42:47.281Z,97.24
2017-06-29T04:45:11.366Z,97.14
2017-06-29T04:47:35.444Z,96.42
2017-06-29T04:49:59.531Z,96.22
2017-06-29T04:52:23.615Z,95.74
2017-06-29T04:54:47.692Z,97.28
2017-06-29T04:57:11.774Z,96.12
2017-06-29T04:59:18.957Z,95.45
2017-06-29T05:01:43.037Z,93.76
2017-06-29T05:04:07.117Z,92.99
2017-06-29T05:06:31.204Z,92.66
2017-06-29T05:08:55.389Z,94.39
2017-06-29T05:11:19.471Z,92.94
2017-06-29T05:13:43.554Z,92.13
2017-06-29T05:16:07.642Z,91.06
2017-06-29T05:18:18.066Z,89.81
2017-06-29T05:20:42.182Z,90.1
2017-06-29T05:22:57.867Z,92.37
2017-06-29T05:25:21.944Z,91.83
2017-06-29T05:27:46.036Z,91.89
2017-06-29T05:30:10.220Z,91.69
2017-06-29T05:32:34.400Z,91.83
2017-06-29T05:34:58.476Z,90.2
2017-06-29T05:37:22.665Z,90.1
2017-06-29T05:39:24.068Z,88.95
2017-06-29T05:41:48.199Z,88.65
2017-06-29T05:44:12.386Z,88.85
2017-06-29T05:46:36.570Z,88.56
2017-06-29T05:48:52.255Z,89.14
2017-06-29T05:51:16.467Z,88.46
2017-06-29T05:53:40.615Z,89.04
2017-06-29T05:55:51.023Z,88.56
2017-06-29T05:58:15.165Z,87.4
2017-06-29T06:00:16.540Z,88.75
2017-06-29T06:02:09.496Z,88.37
2017-06-29T06:04:33.645Z,86.92
2017-06-29T06:06:49.331Z,87.88
2017-06-29T06:09:13.526Z,85.96
2017-06-29T06:11:29.304Z,88.37
2017-06-29T06:13:53.383Z,85.61
2017-06-29T06:15:54.759Z,84.27
2017-06-29T06:18:18.924Z,83.34
2017-06-29T06:20:43.108Z,81.65
2017-06-29T06:23:07.311Z,83.01
2017-06-29T06:25:31.472Z,82.96
2017-06-29T06:27:47.220Z,82.48
2017-06-29T06:30:11.577Z,83.4
2017-06-29T06:32:35.637Z,82.43
2017-06-29T06:34:51.380Z,82.48
2017-06-29T06:36:52.853Z,80.97
2017-06-29T06:39:17.056Z,79.62
2017-06-29T06:41:41.240Z,78.85
2017-06-29T06:44:05.428Z,78.75
2017-06-29T06:46:21.163Z,79.43
2017-06-29T06:48:45.398Z,78.17
2017-06-29T06:51:09.688Z,77.98
2017-06-29T06:53:33.878Z,77.21
2017-06-29T06:55:49.661Z,77.98
2017-06-29T06:58:13.941Z,77.01
2017-06-29T07:00:38.230Z,74.58
2017-06-29T07:03:02.521Z,74.04
2017-06-29T07:05:26.805Z,73.36
2017-06-29T07:07:51.098Z,72.42
2017-06-29T07:10:15.391Z,71.5
2017-06-29T07:12:39.764Z,70.88
2017-06-29T07:15:04.160Z,70.59
2017-06-29T07:17:28.557Z,70.72
2017-06-29T07:19:52.836Z,69.5
2017-06-29T07:22:17.244Z,69.27
2017-06-29T07:24:41.621Z,68.3
2017-06-29T07:27:06.005Z,68.73
2017-06-29T07:29:30.397Z,66.98
2017-06-29T07:31:54.900Z,69.37
2017-06-29T07:34:19.391Z,66.5
2017-06-29T07:36:12.361Z,66.6
2017-06-29T07:38:37.853Z,67.14
2017-06-29T07:41:02.343Z,66.69
2017-06-29T07:43:26.833Z,66.6
2017-06-29T07:45:51.326Z,66.02
2017-06-29T07:48:15.826Z,65.95
2017-06-29T07:50:40.307Z,63.49
2017-06-29T07:53:04.803Z,61.78
2017-06-29T07:55:29.299Z,59.03
2017-06-29T07:57:45.391Z,56.77
2017-06-29T08:00:01.521Z,56.85
2017-06-29T08:02:17.686Z,59.03
2017-06-29T08:04:42.303Z,58.93
2017-06-29T08:07:06.901Z,59.22
2017-06-29T08:09:31.478Z,60.23
2017-06-29T08:11:56.068Z,61.55
2017-06-29T08:14:20.655Z,61.49
2017-06-29T08:16:36.842Z,59
2017-06-29T08:19:01.555Z,57.6
2017-06-29T08:21:26.250Z,55.25
2017-06-29T08:23:50.945Z,55.22
2017-06-29T08:26:01.526Z,52.67
2017-06-29T08:28:26.313Z,53.11
2017-06-29T08:30:42.612Z,51.21
2017-06-29T08:32:52.707Z,51.73
2017-06-29T08:35:17.606Z,50.82
2017-06-29T08:37:42.306Z,54.05
2017-06-29T08:40:07.084Z,51.48
2017-06-29T08:42:31.962Z,50.07
2017-06-29T08:44:56.870Z,47.41
2017-06-29T08:47:21.771Z,50.07
2017-06-29T08:49:46.670Z,49.97
2017-06-29T08:52:11.588Z,48.66
2017-06-29T08:54:36.480Z,49.07
2017-06-29T08:57:01.378Z,48.44
2017-06-29T08:59:26.276Z,45
2017-06-29T09:01:51.188Z,44.58
2017-06-29T09:04:07.684Z,43.1
2017-06-29T09:06:32.692Z,42.85
2017-06-29T09:08:57.702Z,44.04
2017-06-29T09:11:22.698Z,45.15
2017-06-29T09:13:47.706Z,44.41
2017-06-29T09:16:12.718Z,44.95
2017-06-29T09:18:37.707Z,46.44
2017-06-29T09:21:02.713Z,45.98
2017-06-29T09:23:27.721Z,47.69
2017-06-29T09:25:29.814Z,48.19
2017-06-29T09:27:54.783Z,47.13
2017-06-29T09:30:11.186Z,47.44
2017-06-29T09:32:36.072Z,48.36
2017-06-29T09:34:52.500Z,47.98
2017-06-29T09:37:17.413Z,44.97
2017-06-29T09:39:42.308Z,43.73
2017-06-29T09:42:07.224Z,41.99
2017-06-29T09:44:32.206Z,42.65
2017-06-29T09:46:57.250Z,41.42
2017-06-29T09:49:22.218Z,43.88
2017-06-29T09:51:38.817Z,43.32
2017-06-29T09:54:03.933Z,42.09
2017-06-29T09:56:29.033Z,41.28
2017-06-29T09:58:54.137Z,41.38
2017-06-29T10:01:19.240Z,40.47
2017-06-29T10:03:35.843Z,39.49
2017-06-29T10:06:00.973Z,39.86
2017-06-29T10:08:17.675Z,39.14
2017-06-29T10:10:42.784Z,42.66
2017-06-29T10:13:07.883Z,43.52
2017-06-29T10:15:09.508Z,44.2
2017-06-29T10:17:34.533Z,44.76
2017-06-29T10:19:59.484Z,45.42
2017-06-29T10:22:24.539Z,44.82
2017-06-29T10:24:41.049Z,47.05
2017-06-29T10:26:57.538Z,47.05
2017-06-29T10:29:22.438Z,48
2017-06-29T10:31:24.005Z,50.02
2017-06-29T10:33:17.062Z,51.45
2017-06-29T10:35:41.948Z,51.53
2017-06-29T10:38:06.738Z,51.14
2017-06-29T10:40:31.534Z,51.97
2017-06-29T10:42:56.331Z,50.34
2017-06-29T10:45:21.142Z,49.51
2017-06-29T10:47:45.939Z,48
2017-06-29T10:49:56.069Z,46.66
2017-06-29T10:52:20.995Z,46.27
2017-06-29T10:54:45.909Z,45.26
2017-06-29T10:57:10.800Z,44.07
2017-06-29T10:59:35.698Z,42.68
2017-06-29T11:02:00.710Z,42.11
2017-06-29T11:04:25.706Z,40.56
2017-06-29T11:06:50.722Z,42.24
2017-06-29T11:09:15.726Z,42.07
2017-06-29T11:11:40.729Z,41.25
2017-06-29T11:13:42.326Z,40.25
2017-06-29T11:16:07.384Z,41.11
2017-06-29T11:18:32.491Z,42.16
2017-06-29T11:20:57.599Z,40.31
2017-06-29T11:23:22.703Z,40.89
2017-06-29T11:25:47.820Z,40.68
2017-06-29T11:28:12.814Z,40.27
2017-06-29T11:30:29.308Z,37.75
2017-06-29T11:32:54.430Z,38.34
2017-06-29T11:35:11.031Z,36.88
2017-06-29T11:37:36.139Z,36.59
2017-06-29T11:40:01.301Z,36.51
2017-06-29T11:42:17.860Z,36.77
2017-06-29T11:44:43.137Z,36.02
2017-06-29T11:46:53.463Z,37.34
2017-06-29T11:49:18.635Z,37.04
2017-06-29T11:51:35.237Z,36.47
2017-06-29T11:54:00.343Z,37.12
2017-06-29T11:56:25.373Z,37.6
2017-06-29T11:58:50.529Z,37.24
2017-06-29T12:01:07.068Z,37.01
2017-06-29T12:03:32.165Z,37.99
2017-06-29T12:05:48.664Z,38.65
2017-06-29T12:08:05.180Z,37.57
2017-06-29T12:10:30.175Z,37.48
2017-06-29T12:12:55.186Z,38.65
2017-06-29T12:15:20.189Z,38.24
2017-06-29T12:17:21.875Z,38.75
2017-06-29T12:19:46.830Z,37.96
2017-06-29T12:22:11.848Z,38.35
2017-06-29T12:24:13.435Z,40.01
2017-06-29T12:26:38.323Z,40.13
2017-06-29T12:28:54.844Z,39
2017-06-29T12:31:19.799Z,38.79
2017-06-29T12:33:44.697Z,37.7
2017-06-29T12:36:09.599Z,36.76
2017-06-29T12:38:34.497Z,38.3
2017-06-29T12:40:59.399Z,39.12
2017-06-29T12:43:07.387Z,38.95
2017-06-29T12:45:32.102Z,43.51
2017-06-29T12:47:56.899Z,45.12
2017-06-29T12:50:21.799Z,45.31
2017-06-29T12:52:46.697Z,47.91
2017-06-29T12:55:02.967Z,48.22
2017-06-29T12:57:27.694Z,48.83
2017-06-29T12:59:44.085Z,48.3
2017-06-29T13:01:54.287Z,47.34
2017-06-29T13:03:55.838Z,47.2
2017-06-29T13:06:12.125Z,47.76
2017-06-29T13:08:36.898Z,48.08
2017-06-29T13:10:47.027Z,46.74
2017-06-29T13:12:57.244Z,46.57
2017-06-29T13:15:21.997Z,45.67
2017-06-29T13:17:46.811Z,44.35
2017-06-29T13:20:11.510Z,43.29
2017-06-29T13:22:36.269Z,43.29
2017-06-29T13:25:00.997Z,43.15
2017-06-29T13:27:17.227Z,43.67
2017-06-29T13:29:41.998Z,43.92
2017-06-29T13:32:06.706Z,46.11
2017-06-29T13:34:31.492Z,46.42
2017-06-29T13:36:56.288Z,46.72
2017-06-29T13:39:20.988Z,47.49
2017-06-29T13:41:45.680Z,47.52
2017-06-29T13:43:47.991Z,46.15
2017-06-29T13:46:12.863Z,44.74
2017-06-29T13:48:37.669Z,44.26
2017-06-29T13:51:02.461Z,42.11
2017-06-29T13:53:27.156Z,42.58
2017-06-29T13:55:51.948Z,42.11
2017-06-29T13:58:16.736Z,41.61
2017-06-29T14:00:43.390Z,41.42
2017-06-29T14:03:08.200Z,41.88
2017-06-29T14:05:32.991Z,42.03
2017-06-29T14:07:57.773Z,42.44
2017-06-29T14:09:59.547Z,42.66
2017-06-29T14:12:24.246Z,42.56
2017-06-29T14:14:49.036Z,43.88
2017-06-29T14:17:13.865Z,43.78
2017-06-29T14:19:38.526Z,43.4
2017-06-29T14:21:54.824Z,43.12
2017-06-29T14:24:02.677Z,43.98
2017-06-29T14:26:18.849Z,44.15
2017-06-29T14:28:43.525Z,44.58
2017-06-29T14:31:08.220Z,44.68
2017-06-29T14:33:32.917Z,45.36
2017-06-29T14:35:57.607Z,44.95
2017-06-29T14:38:13.808Z,46.38
2017-06-29T14:40:38.505Z,47.91
2017-06-29T14:42:54.717Z,47.93
2017-06-29T14:45:19.395Z,47.11
2017-06-29T14:47:27.099Z,46.04
2017-06-29T14:49:51.668Z,45.95
2017-06-29T14:52:07.810Z,46.72
2017-06-29T14:54:32.473Z,49.63
2017-06-29T14:56:48.609Z,52.99
2017-06-29T14:59:13.157Z,61.73
2017-06-29T15:01:37.654Z,70.83
2017-06-29T15:04:02.171Z,72.47
2017-06-29T15:06:12.197Z,72.75
2017-06-29T15:08:36.585Z,73.33
2017-06-29T15:12:36.732Z,75.36
2017-06-29T15:15:00.991Z,75.99
2017-06-29T15:17:25.274Z,76.96
2017-06-29T15:19:49.466Z,77.69
2017-06-29T15:22:13.644Z,78.08
2017-06-29T15:24:37.930Z,80.1
2017-06-29T15:26:54.719Z,80.87
2017-06-29T15:29:19.850Z,81.7
2017-06-29T15:31:44.030Z,81.79
2017-06-29T15:34:08.476Z,82.41
2017-06-29T15:36:32.401Z,82.02
2017-06-29T15:38:56.581Z,83.47
2017-06-29T15:41:03.828Z,83.85
2017-06-29T15:43:27.952Z,83.99
2017-06-29T15:45:52.224Z,84.76
2017-06-29T15:48:16.440Z,83.41
2017-06-29T15:50:32.115Z,83.03
2017-06-29T15:52:56.295Z,80.85
2017-06-29T15:55:20.480Z,79.54
2017-06-29T15:57:30.948Z,80.94
2017-06-29T15:59:41.327Z,79.44
2017-06-29T16:01:42.697Z,77.75
2017-06-29T16:04:06.948Z,78.58
2017-06-29T16:06:31.225Z,76.53
2017-06-29T16:08:55.517Z,76.92
2017-06-29T16:11:19.811Z,75.67
2017-06-29T16:13:44.097Z,77.46
2017-06-29T16:15:59.930Z,78.23
2017-06-29T16:18:24.305Z,76.24
2017-06-29T16:20:40.078Z,76.57
2017-06-29T16:23:04.350Z,74.1
2017-06-29T16:25:28.631Z,72.64
2017-06-29T16:27:53.021Z,73.32
2017-06-29T16:30:00.406Z,72.84
2017-06-29T16:32:16.424Z,72.06
2017-06-29T16:34:40.968Z,72.55
2017-06-29T16:37:05.211Z,73.58
2017-06-29T16:39:16.044Z,74.93
2017-06-29T16:41:31.936Z,75.95
2017-06-29T16:43:56.234Z,77.36
2017-06-29T16:45:58.223Z,77.65
2017-06-29T16:48:14.084Z,73.77
2017-06-29T16:50:38.471Z,73.96
2017-06-29T16:52:54.255Z,72.61
2017-06-29T16:55:18.526Z,72.64
2017-06-29T16:57:42.830Z,71.26
2017-06-29T16:59:44.268Z,70.87
2017-06-29T17:02:08.582Z,68.2
2017-06-29T17:04:32.961Z,67.01
2017-06-29T17:06:48.758Z,67.3
2017-06-29T17:09:04.550Z,65.78
2017-06-29T17:11:20.425Z,64.95
2017-06-29T17:13:44.690Z,63.6
2017-06-29T17:16:08.942Z,63.47
2017-06-29T17:18:33.289Z,64.72
2017-06-29T17:20:57.692Z,65.69
2017-06-29T17:23:22.166Z,63.69
2017-06-29T17:25:46.476Z,64.18
2017-06-29T17:27:56.459Z,63.69
2017-06-29T17:30:12.308Z,62.34
2017-06-29T17:32:36.788Z,61.89
2017-06-29T17:35:01.175Z,61.33
2017-06-29T17:37:25.570Z,62.44
2017-06-29T17:39:41.559Z,63.08
2017-06-29T17:42:05.898Z,61.86
2017-06-29T17:44:13.336Z,62.12
2017-06-29T17:46:37.729Z,62.31
2017-06-29T17:48:53.625Z,62.34
2017-06-29T17:51:18.008Z,61.57
2017-06-29T17:53:33.953Z,61.37
2017-06-29T17:55:58.388Z,61.76
2017-06-29T17:58:22.779Z,61.27
2017-06-29T18:00:47.175Z,62.27
2017-06-29T18:03:11.457Z,62.24
2017-06-29T18:05:35.753Z,62.63
2017-06-29T18:08:02.997Z,63.56
2017-06-29T18:10:27.384Z,62.63
2017-06-29T18:12:51.772Z,63.02
2017-06-29T18:14:53.227Z,62.18
2017-06-29T18:17:09.163Z,62.44
2017-06-29T18:19:33.505Z,62.34
2017-06-29T18:21:57.786Z,62.63
2017-06-29T18:24:22.179Z,62.53
2017-06-29T18:26:46.563Z,63.31
2017-06-29T18:29:02.459Z,62.92
2017-06-29T18:31:26.880Z,62.63
2017-06-29T18:33:51.238Z,63.11
2017-06-29T18:36:15.631Z,63.11
2017-06-29T18:38:39.920Z,63.69
2017-06-29T18:41:04.326Z,63.79
2017-06-29T18:43:14.797Z,64.24
2017-06-29T18:45:39.148Z,64.34
2017-06-29T18:48:03.534Z,65.75
2017-06-29T18:50:27.847Z,64.43
2017-06-29T18:52:43.644Z,63.69
2017-06-29T18:55:07.895Z,63.47
2017-06-29T18:57:32.156Z,64.24
2017-06-29T18:59:56.486Z,63.18
2017-06-29T19:02:20.867Z,63.28
2017-06-29T19:04:31.365Z,63.08
2017-06-29T19:06:55.724Z,62.5
2017-06-29T19:09:20.104Z,62.31
2017-06-29T19:11:44.390Z,62.12
2017-06-29T19:14:00.283Z,61.92
2017-06-29T19:16:24.580Z,63.05
2017-06-29T19:18:48.880Z,62.7
2017-06-29T19:21:13.146Z,62.02
2017-06-29T19:23:37.427Z,63.34
2017-06-29T19:26:01.617Z,63.05
2017-06-29T19:28:25.895Z,62.95
2017-06-29T19:30:35.883Z,64.76
2017-06-29T19:33:00.139Z,63.98
2017-06-29T19:35:24.421Z,63.7
2017-06-29T19:37:48.578Z,64.37
2017-06-29T19:40:04.396Z,64.08
2017-06-29T19:42:28.708Z,64.28
2017-06-29T19:44:52.971Z,64.86
2017-06-29T19:47:17.251Z,64.08
2017-06-29T19:49:41.543Z,64.92
2017-06-29T19:52:05.725Z,65.11
2017-06-29T19:54:30.018Z,64.79
2017-06-29T19:56:54.208Z,65.08
2017-06-29T20:00:54.236Z,67.26
2017-06-29T20:03:18.511Z,67.33
2017-06-29T20:05:42.716Z,67.49
2017-06-29T20:08:06.882Z,67.49
2017-06-29T20:10:31.065Z,67.1
2017-06-29T20:12:55.102Z,67
2017-06-29T20:15:10.822Z,68.22
2017-06-29T20:17:26.511Z,68.99
2017-06-29T20:19:50.592Z,68.9
2017-06-29T20:22:01.022Z,67.83
2017-06-29T20:24:26.168Z,67.45
2017-06-29T20:26:50.347Z,67.07
2017-06-29T20:29:14.529Z,66.65
2017-06-29T20:31:16.503Z,66.58
2017-06-29T20:33:40.603Z,65.69
2017-06-29T20:36:04.657Z,65.97
2017-06-29T20:38:28.732Z,66.27
2017-06-29T20:40:52.730Z,66.46
2017-06-29T20:43:17.825Z,67.13
2017-06-29T20:45:41.904Z,66.55
2017-06-29T20:47:43.356Z,66.74
2017-06-29T20:49:58.940Z,66.74
2017-06-29T20:52:22.939Z,67.13
2017-06-29T20:54:47.009Z,66.74
2017-06-29T20:57:02.578Z,68.19
2017-06-29T20:59:26.548Z,67.22
2017-06-29T21:01:50.663Z,67.8
2017-06-29T21:04:14.633Z,67.99
2017-06-29T21:06:38.602Z,67.51
2017-06-29T21:09:03.606Z,68.19
2017-06-29T21:11:27.575Z,69.06
2017-06-29T21:13:51.562Z,68.57
2017-06-29T21:16:15.542Z,69.06
2017-06-29T21:18:39.432Z,69.15
2017-06-29T21:20:32.343Z,68.76
2017-06-29T21:22:42.193Z,69.34
2017-06-29T21:24:57.805Z,70.11
2017-06-29T21:27:21.886Z,70.68
2017-06-29T21:29:45.860Z,71.33
2017-06-29T21:32:01.439Z,71.26
2017-06-29T21:34:17.036Z,72.09
2017-06-29T21:36:41.008Z,72
2017-06-29T21:38:56.590Z,73.06
2017-06-29T21:41:20.668Z,72.48
2017-06-29T21:43:44.739Z,72.77
2017-06-29T21:46:08.737Z,73.63
2017-06-29T21:48:32.722Z,74.69
2017-06-29T21:50:56.694Z,74.5
2017-06-29T21:53:20.676Z,74.5
2017-06-29T21:55:44.646Z,75.27
2017-06-29T21:58:08.629Z,75.75
2017-06-29T22:00:32.615Z,76.19
2017-06-29T22:02:56.588Z,76
2017-06-29T22:05:12.165Z,76.39
2017-06-29T22:07:27.751Z,76.67
2017-06-29T22:09:43.332Z,76.48
2017-06-29T22:12:07.324Z,76.86
2017-06-29T22:14:31.319Z,76.39
2017-06-29T22:16:55.271Z,78.02
2017-06-29T22:19:19.264Z,76.67
2017-06-29T22:23:10.633Z,77.34
2017-06-29T22:25:34.673Z,76.23
2017-06-29T22:27:50.220Z,76.48
2017-06-29T22:30:14.228Z,76.86
2017-06-29T22:32:29.692Z,75.81
2017-06-29T22:34:53.592Z,76.09
2017-06-29T22:37:17.563Z,75.84
2017-06-29T22:39:41.541Z,74.4
2017-06-29T22:42:05.524Z,74.79
2017-06-29T22:44:06.860Z,74.75
2017-06-29T22:46:30.846Z,75.04
2017-06-29T22:48:32.136Z,74.94
2017-06-29T22:50:56.072Z,75.04
2017-06-29T22:52:57.460Z,74.27
2017-06-29T22:55:13.013Z,73.88
2017-06-29T22:57:37.000Z,73.6
2017-06-29T23:00:00.868Z,73.6
2017-06-29T23:02:24.844Z,73.54
2017-06-29T23:04:26.172Z,73.15
2017-06-29T23:06:50.176Z,73.25
2017-06-29T23:09:05.752Z,73.5
2017-06-29T23:11:29.728Z,73.31
2017-06-29T23:13:53.710Z,73.31
2017-06-29T23:16:17.693Z,73.11
2017-06-29T23:18:41.604Z,73.21
2017-06-29T23:20:57.166Z,72.16
2017-06-29T23:23:12.636Z,73.41
2017-06-29T23:25:36.616Z,73.31
2017-06-29T23:28:00.597Z,73.41
2017-06-29T23:30:24.567Z,73.56
2017-06-29T23:32:48.548Z,73.11
2017-06-29T23:35:12.534Z,73.5
2017-06-29T23:37:36.506Z,73.56
2017-06-29T23:40:00.487Z,73.94
2017-06-29T23:42:24.472Z,73.6
2017-06-29T23:44:48.460Z,73.21
2017-06-29T23:46:49.796Z,72.73
2017-06-29T23:49:13.776Z,72.64
2017-06-29T23:51:37.748Z,73.41
2017-06-29T23:54:01.737Z,72.64
2017-06-29T23:56:25.731Z,73.41
2017-06-29T23:58:49.620Z,74.04
